Time;durP1;ratioP1;P1;durP2;ratioP2;P2;SDS_P1;SDS_P2;PMS_P1;PMS_P2;Temp;Humidity;BMP_temperature;BMP_pressure;BME280_temperature;BME280_humidity;BME280_pressure;Samples;Min_cycle;Max_cycle;Signal;HPM_P1;HPM_P2
2024/03/27 00:02:04;;;;;;;17.70;11.27;;;307.20;2304.00;;;;;;5051788;28;20414;-72
2024/03/27 00:04:31;;;;;;;22.25;12.57;;;282.50;2278.40;;;;;;5052269;28;20017;-72
2024/03/27 00:06:57;;;;;;;16.83;12.00;;;307.20;2304.00;;;;;;5044154;28;20146;-72
2024/03/27 00:09:23;;;;;;;20.08;12.55;;;282.50;2278.40;;;;;;5048212;28;20482;-73
2024/03/27 00:11:50;;;;;;;18.48;10.73;;;307.20;2304.00;;;;;;5052033;28;20485;-72
2024/03/27 00:14:16;;;;;;;20.25;13.60;;;282.40;2278.40;;;;;;5051865;28;20032;-70
2024/03/27 00:16:46;;;;;;;15.75;10.82;;;282.40;2278.40;;;;;;5051937;28;20044;-72
2024/03/27 00:19:13;;;;;;;15.52;10.52;;;282.50;2278.40;;;;;;5051840;28;20478;-71
2024/03/27 00:21:40;;;;;;;15.63;10.48;;;282.40;2278.40;;;;;;5051694;28;20039;-72
2024/03/27 00:24:06;;;;;;;10.90;8.32;;;282.40;2278.40;;;;;;5051572;28;20017;-71
2024/03/27 00:26:32;;;;;;;10.90;7.32;;;282.40;2278.40;;;;;;5051534;28;20047;-72
2024/03/27 00:28:58;;;;;;;13.43;8.30;;;282.30;2278.40;;;;;;5051802;28;20028;-71
2024/03/27 00:31:24;;;;;;;14.45;8.52;;;282.50;2278.40;;;;;;5051731;28;20021;-71
2024/03/27 00:33:50;;;;;;;14.98;10.50;;;282.50;2278.40;;;;;;5051344;28;20048;-72
2024/03/27 00:36:16;;;;;;;18.52;12.13;;;282.50;2278.40;;;;;;5051813;28;20045;-72
2024/03/27 00:38:42;;;;;;;19.38;10.80;;;307.20;2304.00;;;;;;5051343;28;20029;-71
2024/03/27 00:41:08;;;;;;;17.02;12.90;;;307.20;2304.00;;;;;;5051307;28;20037;-71
2024/03/27 00:43:35;;;;;;;17.50;11.57;;;307.20;2304.00;;;;;;5051214;28;20023;-72
2024/03/27 00:46:05;;;;;;;12.52;10.00;;;307.20;2304.00;;;;;;5051338;28;20028;-71
2024/03/27 00:48:34;;;;;;;10.93;7.50;;;307.20;2304.00;;;;;;5051053;28;20017;-72
2024/03/27 00:51:00;;;;;;;12.27;10.52;;;282.50;2278.40;;;;;;5050954;28;20032;-72
2024/03/27 00:53:26;;;;;;;18.05;10.85;;;282.50;2278.40;;;;;;5050980;28;20096;-71
2024/03/27 00:56:01;;;;;;;23.83;13.18;;;282.50;2278.40;;;;;;5051355;28;20051;-72
2024/03/27 00:58:27;;;;;;;13.57;9.27;;;307.20;2304.00;;;;;;5050760;28;20075;-71
2024/03/27 01:00:53;;;;;;;12.75;9.43;;;282.50;2278.40;;;;;;5049841;28;20502;-72
2024/03/27 01:03:19;;;;;;;17.92;10.43;;;282.40;2278.40;;;;;;5050626;28;20021;-72
2024/03/27 01:05:45;;;;;;;22.77;13.10;;;282.50;2278.40;;;;;;5050495;28;20483;-72
2024/03/27 01:08:11;;;;;;;15.70;10.32;;;282.50;2278.40;;;;;;5050829;28;20025;-71
2024/03/27 01:10:38;;;;;;;15.25;10.43;;;282.50;2278.40;;;;;;5050234;28;20052;-71
2024/03/27 01:13:09;;;;;;;16.77;11.75;;;307.20;2304.00;;;;;;5037651;28;20061;-72
2024/03/27 01:15:38;;;;;;;14.30;9.63;;;307.20;2304.00;;;;;;5050569;28;20108;-72
2024/03/27 01:18:04;;;;;;;14.77;9.98;;;307.20;2304.00;;;;;;5050525;28;20029;-72
2024/03/27 01:20:31;;;;;;;18.90;9.95;;;307.20;2304.00;;;;;;5050494;28;20036;-72
2024/03/27 01:22:57;;;;;;;13.68;9.23;;;307.20;2304.00;;;;;;5050465;28;20090;-72
2024/03/27 01:25:23;;;;;;;17.88;11.27;;;307.30;2304.00;;;;;;5050047;28;20024;-73
2024/03/27 01:27:49;;;;;;;18.42;11.05;;;307.20;2304.00;;;;;;5050700;28;20051;-72
2024/03/27 01:30:15;;;;;;;15.63;10.98;;;307.20;2304.00;;;;;;5050150;28;20094;-72
2024/03/27 01:32:41;;;;;;;19.75;11.27;;;307.20;2304.00;;;;;;5050346;28;20415;-72
2024/03/27 01:35:07;;;;;;;16.17;9.63;;;282.50;2278.40;;;;;;5050401;28;20479;-72
2024/03/27 01:37:33;;;;;;;13.90;9.15;;;282.50;2278.40;;;;;;5050466;28;20021;-71
2024/03/27 01:39:58;;;;;;;12.55;8.13;;;282.50;2278.40;;;;;;5050004;28;20067;-72
2024/03/27 01:42:24;;;;;;;11.73;8.85;;;282.40;2278.40;;;;;;5050268;28;20087;-71
2024/03/27 01:44:50;;;;;;;12.60;7.57;;;282.40;2278.40;;;;;;5050235;28;20555;-72
2024/03/27 01:47:16;;;;;;;11.95;7.43;;;282.50;2278.40;;;;;;5050090;28;20029;-73
2024/03/27 01:49:43;;;;;;;14.05;9.57;;;282.50;2278.40;;;;;;5050504;28;20053;-72
2024/03/27 01:52:10;;;;;;;12.43;8.25;;;282.50;2278.40;;;;;;5050334;28;20467;-71
2024/03/27 01:54:38;;;;;;;10.27;7.38;;;282.50;2278.40;;;;;;5049707;28;20032;-71
2024/03/27 01:57:05;;;;;;;9.23;7.72;;;282.50;2278.40;;;;;;5049835;28;20562;-72
2024/03/27 01:59:33;;;;;;;15.30;10.98;;;307.20;2304.00;;;;;;5049956;28;20059;-71
2024/03/27 02:01:59;;;;;;;16.23;10.93;;;307.20;2304.00;;;;;;5049924;28;20391;-72
2024/03/27 02:04:26;;;;;;;15.55;9.50;;;282.50;2278.40;;;;;;5049613;28;20032;-72
2024/03/27 02:06:53;;;;;;;18.58;12.43;;;307.20;2304.00;;;;;;5049957;28;20052;-72
2024/03/27 02:09:20;;;;;;;22.15;14.70;;;307.20;2304.00;;;;;;5049408;28;20033;-71
2024/03/27 02:11:46;;;;;;;29.67;23.70;;;307.20;2304.00;;;;;;5049875;28;20074;-72
2024/03/27 02:14:15;;;;;;;28.25;19.98;;;307.20;2304.00;;;;;;5049603;28;20108;-72
2024/03/27 02:16:41;;;;;;;16.65;13.35;;;307.20;2304.00;;;;;;5049535;28;20024;-72
2024/03/27 02:19:07;;;;;;;15.02;10.27;;;307.30;2304.00;;;;;;5049257;28;20021;-71
2024/03/27 02:21:35;;;;;;;13.90;10.48;;;307.30;2304.00;;;;;;5049318;28;20052;-72
2024/03/27 02:24:19;;;;;;;23.58;15.10;;;307.30;2304.00;;;;;;5048524;28;20021;-72
2024/03/27 02:26:45;;;;;;;;;;;307.30;2304.00;;;;;;5049774;28;20171;-71
2024/03/27 02:29:10;;;;;;;30.58;20.80;;;307.20;2304.00;;;;;;5049261;28;20358;-72
2024/03/27 02:31:36;;;;;;;32.75;19.42;;;307.20;2304.00;;;;;;5049333;28;20110;-71
2024/03/27 02:34:03;;;;;;;18.58;12.85;;;307.20;2304.00;;;;;;5049912;28;20025;-71
2024/03/27 02:36:29;;;;;;;25.77;17.27;;;282.50;2278.40;;;;;;5049310;28;20025;-71
2024/03/27 02:38:55;;;;;;;33.92;18.13;;;282.50;2278.40;;;;;;5048365;28;20056;-72
2024/03/27 02:41:22;;;;;;;36.20;20.65;;;282.50;2278.40;;;;;;5049785;28;20595;-72
2024/03/27 02:43:48;;;;;;;19.98;10.00;;;282.50;2278.40;;;;;;5049353;28;20430;-72
2024/03/27 02:46:14;;;;;;;21.73;11.80;;;282.50;2278.40;;;;;;5049055;28;20025;-71
2024/03/27 02:48:39;;;;;;;11.57;8.75;;;282.50;2278.40;;;;;;5049122;28;20036;-71
2024/03/27 02:51:06;;;;;;;18.55;10.85;;;307.40;2304.00;;;;;;5049108;28;20753;-71
2024/03/27 02:53:32;;;;;;;28.65;19.85;;;282.40;2278.40;;;;;;5048758;28;20086;-72
2024/03/27 02:55:57;;;;;;;18.58;11.70;;;282.40;2278.40;;;;;;5048758;28;20470;-71
2024/03/27 02:58:23;;;;;;;17.75;12.65;;;282.40;2278.40;;;;;;5048926;28;20032;-72
2024/03/27 03:00:49;;;;;;;29.40;14.60;;;282.40;2278.40;;;;;;5049039;28;20029;-72
2024/03/27 03:03:15;;;;;;;18.23;13.43;;;282.30;2278.40;;;;;;5048493;28;20024;-71
2024/03/27 03:05:42;;;;;;;22.08;12.18;;;282.30;2278.40;;;;;;5049243;28;20087;-72
2024/03/27 03:08:08;;;;;;;21.55;14.07;;;282.20;2278.40;;;;;;5049065;28;20447;-71
2024/03/27 03:10:34;;;;;;;15.90;12.50;;;282.30;2278.40;;;;;;5048589;28;20490;-72
2024/03/27 03:13:00;;;;;;;19.48;13.88;;;282.30;2278.40;;;;;;5048937;28;20037;-72
2024/03/27 03:15:25;;;;;;;20.63;13.02;;;282.30;2278.40;;;;;;5048801;28;20100;-71
2024/03/27 03:17:51;;;;;;;19.52;13.00;;;282.20;2278.40;;;;;;5048929;28;20017;-72
2024/03/27 03:20:18;;;;;;;16.55;10.35;;;282.30;2278.40;;;;;;5048776;28;20025;-72
2024/03/27 03:22:44;;;;;;;12.63;7.40;;;282.20;2278.40;;;;;;5035428;28;20037;-72
2024/03/27 03:25:10;;;;;;;14.00;7.70;;;282.20;2278.40;;;;;;5048878;28;20024;-72
2024/03/27 03:27:37;;;;;;;12.82;9.48;;;282.20;2278.40;;;;;;5047381;28;20025;-71
2024/03/27 03:30:03;;;;;;;13.18;9.48;;;282.20;2278.40;;;;;;5048305;28;20098;-73
2024/03/27 03:32:29;;;;;;;16.02;9.63;;;282.30;2278.40;;;;;;5048607;28;20032;-71
2024/03/27 03:34:55;;;;;;;24.58;13.90;;;282.40;2278.40;;;;;;5051500;28;20108;-72
2024/03/27 03:37:22;;;;;;;22.15;13.35;;;282.50;2278.40;;;;;;5052307;28;20103;-72
2024/03/27 03:39:48;;;;;;;17.63;13.02;;;282.40;2278.40;;;;;;5052362;28;20053;-72
2024/03/27 03:42:14;;;;;;;15.27;10.68;;;282.40;2278.40;;;;;;5052416;28;20033;-72
2024/03/27 03:44:39;;;;;;;16.20;11.18;;;282.40;2278.40;;;;;;5052340;28;20459;-72
2024/03/27 03:47:05;;;;;;;16.05;11.35;;;282.50;2278.40;;;;;;5039428;28;20028;-71
2024/03/27 03:49:31;;;;;;;12.77;9.38;;;282.40;2278.40;;;;;;5052421;28;20064;-72
2024/03/27 03:51:57;;;;;;;17.83;11.85;;;282.50;2278.40;;;;;;5052427;28;20052;-72
2024/03/27 03:54:23;;;;;;;47.70;25.55;;;282.50;2278.40;;;;;;5051870;28;20035;-72
2024/03/27 03:56:49;;;;;;;36.58;21.88;;;282.50;2278.40;;;;;;5052452;28;20057;-71
2024/03/27 03:59:15;;;;;;;22.70;12.90;;;282.50;2278.40;;;;;;5052023;28;20068;-72
2024/03/27 04:01:41;;;;;;;23.60;15.73;;;282.50;2278.40;;;;;;5051957;28;20037;-72
2024/03/27 04:04:07;;;;;;;25.55;15.30;;;282.40;2278.40;;;;;;5051620;28;20028;-72
2024/03/27 04:06:33;;;;;;;24.08;21.48;;;282.40;2278.40;;;;;;5038561;28;20108;-73
2024/03/27 04:08:59;;;;;;;17.38;13.68;;;282.50;2278.40;;;;;;5051768;28;20028;-72
2024/03/27 04:11:25;;;;;;;14.80;10.88;;;282.50;2278.40;;;;;;5051960;28;20029;-71
2024/03/27 04:13:53;;;;;;;16.33;10.85;;;282.50;2278.40;;;;;;5052054;28;20053;-72
2024/03/27 04:16:19;;;;;;;14.27;10.48;;;282.50;2278.40;;;;;;5052142;28;20557;-71
2024/03/27 04:18:45;;;;;;;18.63;12.45;;;282.40;2278.40;;;;;;5052128;28;20056;-72
2024/03/27 04:21:11;;;;;;;21.00;14.40;;;282.40;2278.40;;;;;;5051946;28;20040;-71
2024/03/27 04:23:37;;;;;;;21.65;12.88;;;282.40;2278.40;;;;;;5051393;28;20024;-72
2024/03/27 04:26:03;;;;;;;19.65;13.48;;;282.40;2278.40;;;;;;5051311;28;20028;-73
2024/03/27 04:28:30;;;;;;;20.02;12.90;;;282.30;2278.40;;;;;;5051612;28;20023;-71
2024/03/27 04:30:56;;;;;;;19.15;11.93;;;282.20;2278.40;;;;;;5051438;28;20112;-72
2024/03/27 04:33:22;;;;;;;18.38;12.43;;;282.30;2278.40;;;;;;5051632;28;20429;-71
2024/03/27 04:35:48;;;;;;;235.15;160.60;;;282.20;2278.40;;;;;;5051593;28;20441;-70
2024/03/27 04:38:15;;;;;;;154.45;101.78;;;282.30;2278.40;;;;;;5051153;28;20057;-72
2024/03/27 04:40:41;;;;;;;28.65;15.18;;;282.30;2278.40;;;;;;5051056;28;20102;-71
2024/03/27 04:43:07;;;;;;;20.30;13.85;;;282.30;2278.40;;;;;;5051170;28;20033;-71
2024/03/27 04:45:32;;;;;;;31.13;19.23;;;282.40;2278.40;;;;;;5050790;28;20009;-72
2024/03/27 04:47:58;;;;;;;22.80;16.42;;;282.40;2278.40;;;;;;5051447;28;20029;-71
2024/03/27 04:50:24;;;;;;;22.08;15.82;;;282.30;2278.40;;;;;;5051612;28;20158;-71
2024/03/27 04:52:50;;;;;;;27.67;17.60;;;282.40;2278.40;;;;;;5051154;28;20404;-72
2024/03/27 04:55:16;;;;;;;44.60;28.05;;;282.50;2278.40;;;;;;5051048;28;20017;-71
2024/03/27 04:57:42;;;;;;;40.13;24.98;;;307.20;2304.00;;;;;;5051140;28;20029;-72
2024/03/27 05:00:12;;;;;;;37.42;22.42;;;307.20;2304.00;;;;;;5051559;28;20426;-71
2024/03/27 05:02:38;;;;;;;19.13;12.15;;;307.20;2304.00;;;;;;5050873;28;20033;-71
2024/03/27 05:05:05;;;;;;;36.75;20.63;;;307.20;2304.00;;;;;;5050761;28;20055;-71
2024/03/27 05:07:32;;;;;;;28.38;15.93;;;307.50;2304.00;;;;;;5051101;28;20052;-72
2024/03/27 05:09:58;;;;;;;22.85;14.43;;;307.60;2304.00;;;;;;5050940;28;20150;-71
2024/03/27 05:12:24;;;;;;;50.58;26.48;;;307.60;2304.00;;;;;;5050781;28;20061;-72
2024/03/27 05:14:50;;;;;;;19.15;14.30;;;307.60;2304.00;;;;;;5050571;28;20033;-71
2024/03/27 05:17:17;;;;;;;19.52;12.80;;;307.80;2304.00;;;;;;5050773;28;20025;-72
2024/03/27 05:19:43;;;;;;;14.52;9.15;;;307.80;2304.00;;;;;;5051001;28;20029;-71
2024/03/27 05:22:15;;;;;;;19.95;12.40;;;307.90;2304.00;;;;;;5050827;28;20076;-72
2024/03/27 05:24:42;;;;;;;15.13;8.57;;;308.00;2304.00;;;;;;5050666;28;20021;-71
2024/03/27 05:27:08;;;;;;;17.25;9.43;;;332.80;2329.60;;;;;;5051309;28;20024;-71
2024/03/27 05:29:35;;;;;;;9.50;6.38;;;332.80;2329.60;;;;;;5049911;28;20429;-72
2024/03/27 05:32:01;;;;;;;8.88;6.28;;;332.90;2329.60;;;;;;5050492;28;20025;-71
2024/03/27 05:34:27;;;;;;;19.58;10.38;;;333.00;2329.60;;;;;;5065630;28;20017;-72
2024/03/27 05:36:53;;;;;;;44.13;28.48;;;333.00;2329.60;;;;;;5050249;28;20441;-71
2024/03/27 05:39:19;;;;;;;65.88;38.40;;;333.00;2329.60;;;;;;5049851;28;20056;-72
2024/03/27 05:41:45;;;;;;;18.20;12.95;;;333.20;2329.60;;;;;;5049800;28;20102;-72
2024/03/27 05:44:11;;;;;;;18.30;11.65;;;333.30;2329.60;;;;;;5050298;28;20053;-72
2024/03/27 05:46:38;;;;;;;31.73;18.80;;;333.40;2329.60;;;;;;5050091;28;20039;-72
2024/03/27 05:49:04;;;;;;;26.90;15.85;;;333.70;2329.60;;;;;;5050081;28;20032;-73
2024/03/27 05:51:31;;;;;;;12.85;8.23;;;333.60;2329.60;;;;;;5050029;28;20037;-72
2024/03/27 05:53:57;;;;;;;11.88;8.32;;;333.40;2329.60;;;;;;5049514;28;20502;-72
2024/03/27 05:56:24;;;;;;;14.40;8.90;;;333.50;2329.60;;;;;;5049077;28;20949;-72
2024/03/27 05:58:50;;;;;;;12.70;7.35;;;333.60;2329.60;;;;;;5049103;28;20070;-71
2024/03/27 06:01:17;;;;;;;11.85;5.85;;;358.50;2329.60;;;;;;5049732;28;20021;-72
2024/03/27 06:03:47;;;;;;;16.77;11.57;;;359.30;2329.60;;;;;;5049886;28;20021;-72
2024/03/27 06:06:13;;;;;;;13.15;9.07;;;384.10;2329.60;;;;;;5049651;28;20067;-72
2024/03/27 06:08:39;;;;;;;11.20;8.00;;;384.60;2329.60;;;;;;5049781;28;20036;-72
2024/03/27 06:11:04;;;;;;;25.20;14.40;;;409.90;2355.20;;;;;;5049952;28;20025;-71
2024/03/27 06:13:30;;;;;;;16.67;10.40;;;435.20;2355.20;;;;;;5049924;28;20048;-72
2024/03/27 06:15:56;;;;;;;39.47;25.90;;;461.20;2252.80;;;;;;5049612;28;20429;-72
2024/03/27 06:18:22;;;;;;;62.35;32.30;;;487.10;2073.60;;;;;;5049795;28;20047;-71
2024/03/27 06:20:48;;;;;;;34.10;22.60;;;512.40;1971.20;;;;;;5049306;28;20029;-72
2024/03/27 06:23:14;;;;;;;17.40;12.30;;;538.00;1920.00;;;;;;5049434;28;20036;-71
2024/03/27 06:25:40;;;;;;;41.63;23.92;;;563.30;1868.80;;;;;;5049332;28;20029;-72
2024/03/27 06:28:06;;;;;;;24.05;15.30;;;538.00;1843.20;;;;;;5049523;28;20024;-73
2024/03/27 06:30:38;;;;;;;18.85;12.10;;;512.30;1894.40;;;;;;5049652;28;20024;-72
2024/03/27 06:33:04;;;;;;;25.73;15.35;;;487.10;1920.00;;;;;;5064499;28;20041;-71
2024/03/27 06:35:32;;;;;;;7.85;4.75;;;512.30;1894.40;;;;;;5049626;28;20020;-71
2024/03/27 06:37:58;;;;;;;11.63;8.18;;;512.80;1843.20;;;;;;5049227;28;20083;-71
2024/03/27 06:40:24;;;;;;;34.75;24.88;;;537.90;1843.20;;;;;;5048838;28;20493;-71
2024/03/27 06:42:50;;;;;;;11.27;6.78;;;538.30;1817.60;;;;;;5049611;28;20408;-72
2024/03/27 06:45:16;;;;;;;8.60;6.22;;;538.50;1766.40;;;;;;5044125;28;20032;-70
2024/03/27 06:47:43;;;;;;;7.38;4.75;;;563.70;1792.00;;;;;;5029915;28;20038;-71
2024/03/27 06:50:10;;;;;;;16.83;11.07;;;563.90;1740.80;;;;;;5048303;28;20013;-72
2024/03/27 06:52:36;;;;;;;14.45;9.80;;;588.80;1740.80;;;;;;5042496;28;20029;-72
2024/03/27 06:55:02;;;;;;;13.38;9.27;;;589.40;1689.60;;;;;;5049178;28;20426;-71
2024/03/27 06:57:28;;;;;;;15.15;11.32;;;589.70;1689.60;;;;;;5048927;28;20120;-71
2024/03/27 06:59:53;;;;;;;21.85;14.35;;;614.80;1638.40;;;;;;5048936;28;20025;-72
2024/03/27 07:02:22;;;;;;;18.98;13.15;;;640.00;1612.80;;;;;;5045521;28;20033;-69
2024/03/27 07:04:48;;;;;;;18.50;11.02;;;640.40;1561.60;;;;;;5048642;28;20021;-70
2024/03/27 07:07:14;;;;;;;15.50;12.40;;;665.60;1561.60;;;;;;5048731;28;20028;-71
2024/03/27 07:09:40;;;;;;;17.60;10.20;;;665.60;1561.60;;;;;;5050888;28;20021;-69
2024/03/27 07:12:06;;;;;;;13.93;11.05;;;665.90;1536.00;;;;;;5048871;28;20108;-69
2024/03/27 07:14:32;;;;;;;15.85;10.13;;;666.20;1536.00;;;;;;5046903;28;20108;-70
2024/03/27 07:16:59;;;;;;;20.23;12.75;;;666.50;1536.00;;;;;;5051834;28;20071;-72
2024/03/27 07:19:24;;;;;;;18.33;12.38;;;666.00;1510.40;;;;;;5049046;28;20030;-72
2024/03/27 07:21:50;;;;;;;7.78;6.65;;;665.60;1536.00;;;;;;5052780;28;20120;-70
2024/03/27 07:24:16;;;;;;;16.52;11.80;;;640.60;1536.00;;;;;;5052779;28;20459;-70
2024/03/27 07:26:43;;;;;;;22.63;16.27;;;640.40;1561.60;;;;;;5051039;28;20029;-71
2024/03/27 07:29:09;;;;;;;14.27;12.48;;;640.90;1536.00;;;;;;5052991;28;20467;-71
2024/03/27 07:31:35;;;;;;;18.40;12.20;;;666.00;1510.40;;;;;;5052816;28;20057;-70
2024/03/27 07:34:01;;;;;;;13.63;8.98;;;666.10;1510.40;;;;;;5052333;28;20056;-70
2024/03/27 07:36:27;;;;;;;13.15;7.75;;;666.40;1484.80;;;;;;5051142;28;20469;-68
2024/03/27 07:38:53;;;;;;;24.05;15.68;;;691.40;1484.80;;;;;;5051058;28;20116;-69
2024/03/27 07:41:19;;;;;;;10.98;7.47;;;691.60;1459.20;;;;;;5046831;28;20045;-70
2024/03/27 07:43:45;;;;;;;37.55;24.42;;;716.90;1433.60;;;;;;5049180;28;20040;-72
2024/03/27 07:46:11;;;;;;;46.22;32.63;;;717.20;1433.60;;;;;;5052485;28;20029;-72
2024/03/27 07:48:38;;;;;;;51.10;34.40;;;717.60;1408.00;;;;;;5052275;28;20104;-76
2024/03/27 07:51:04;;;;;;;10.18;6.80;;;742.50;1408.00;;;;;;5046188;28;20480;-74
2024/03/27 07:53:31;;;;;;;15.52;8.43;;;742.90;1408.00;;;;;;5052575;28;20028;-74
2024/03/27 07:55:58;;;;;;;22.20;15.15;;;768.30;1382.40;;;;;;5052154;28;20392;-71
2024/03/27 07:58:24;;;;;;;36.95;20.13;;;793.70;1356.80;;;;;;5047683;28;20078;-73
2024/03/27 08:00:50;;;;;;;32.13;16.98;;;794.20;1331.20;;;;;;5052489;28;20112;-77
2024/03/27 08:03:17;;;;;;;32.28;16.35;;;794.10;1305.60;;;;;;5051905;28;20482;-73
2024/03/27 08:05:46;;;;;;;39.65;24.00;;;794.20;1305.60;;;;;;5052742;28;20094;-78
2024/03/27 08:08:11;;;;;;;19.05;15.45;;;794.20;1305.60;;;;;;5051495;28;20033;-75
2024/03/27 08:10:38;;;;;;;21.75;15.70;;;819.30;1305.60;;;;;;5051592;28;20111;-75
2024/03/27 08:13:04;;;;;;;27.65;15.13;;;819.60;1280.00;;;;;;5051793;28;20061;-75
2024/03/27 08:15:30;;;;;;;13.07;10.63;;;819.50;1280.00;;;;;;5052111;28;20051;-75
2024/03/27 08:17:56;;;;;;;33.42;19.58;;;820.10;1254.40;;;;;;5044115;28;20083;-74
2024/03/27 08:20:23;;;;;;;16.95;9.82;;;844.80;1280.00;;;;;;5045935;28;20021;-72
2024/03/27 08:22:49;;;;;;;17.63;7.45;;;845.20;1280.00;;;;;;5050194;28;20446;-73
2024/03/27 08:25:15;;;;;;;24.30;16.35;;;845.40;1254.40;;;;;;5051330;28;20017;-75
2024/03/27 08:27:41;;;;;;;12.57;8.05;;;870.70;1228.80;;;;;;5051738;28;20029;-78
2024/03/27 08:30:07;;;;;;;12.55;10.23;;;870.50;1228.80;;;;;;5051408;28;20470;-72
2024/03/27 08:32:34;;;;;;;23.10;15.73;;;845.30;1228.80;;;;;;5051342;28;20025;-77
2024/03/27 08:35:00;;;;;;;19.90;17.45;;;845.20;1254.40;;;;;;5051720;28;20138;-77
2024/03/27 08:37:25;;;;;;;18.35;15.35;;;845.40;1228.80;;;;;;5051766;28;20100;-77
2024/03/27 08:39:51;;;;;;;20.08;14.60;;;844.90;1254.40;;;;;;5048771;28;20499;-76
2024/03/27 08:42:17;;;;;;;19.00;14.80;;;820.00;1280.00;;;;;;5051316;28;20041;-72
2024/03/27 08:44:43;;;;;;;12.18;8.95;;;819.60;1280.00;;;;;;5051068;28;20087;-73
2024/03/27 08:47:09;;;;;;;16.38;13.70;;;819.80;1254.40;;;;;;5046824;28;20029;-73
2024/03/27 08:49:35;;;;;;;22.30;14.57;;;819.70;1280.00;;;;;;5037696;28;20088;-73
2024/03/27 08:52:01;;;;;;;18.15;14.25;;;794.40;1305.60;;;;;;5037950;28;20132;-77
2024/03/27 08:54:27;;;;;;;14.85;8.43;;;768.10;1356.80;;;;;;5050623;28;20017;-77
2024/03/27 08:56:53;;;;;;;16.08;9.27;;;742.60;1382.40;;;;;;5050570;28;20057;-73
2024/03/27 08:59:19;;;;;;;16.67;7.47;;;717.30;1433.60;;;;;;5038155;28;20026;-77
2024/03/27 09:01:45;;;;;;;12.38;9.27;;;691.60;1459.20;;;;;;5049720;28;20029;-75
2024/03/27 09:04:11;;;;;;;14.32;9.18;;;666.50;1484.80;;;;;;5051097;28;20103;-70
2024/03/27 09:06:37;;;;;;;17.00;9.45;;;666.20;1536.00;;;;;;5050688;28;20537;-72
2024/03/27 09:09:04;;;;;;;11.65;7.13;;;665.60;1536.00;;;;;;5050427;28;20106;-71
2024/03/27 09:11:30;;;;;;;12.32;7.28;;;640.30;1536.00;;;;;;5050497;28;20037;-71
2024/03/27 09:13:56;;;;;;;10.75;6.55;;;640.50;1561.60;;;;;;5050209;28;20016;-73
2024/03/27 09:16:22;;;;;;;14.85;6.70;;;640.40;1561.60;;;;;;5050324;28;20463;-74
2024/03/27 09:18:48;;;;;;;10.90;6.85;;;640.10;1587.20;;;;;;5050569;28;20100;-73
2024/03/27 09:21:14;;;;;;;13.13;6.97;;;615.00;1612.80;;;;;;5050272;28;20500;-73
2024/03/27 09:23:40;;;;;;;22.63;12.40;;;614.70;1638.40;;;;;;5050199;28;20029;-71
2024/03/27 09:26:06;;;;;;;21.38;13.35;;;614.50;1664.00;;;;;;5045385;28;20049;-71
2024/03/27 09:28:32;;;;;;;15.18;7.28;;;589.70;1664.00;;;;;;5043039;28;20033;-73
2024/03/27 09:31:03;;;;;;;10.82;5.68;;;614.50;1664.00;;;;;;5050121;28;20095;-71
2024/03/27 09:33:29;;;;;;;13.57;8.25;;;614.70;1664.00;;;;;;5049780;28;20025;-70
2024/03/27 09:35:55;;;;;;;14.45;7.05;;;614.80;1664.00;;;;;;5049871;28;20021;-70
2024/03/27 09:38:21;;;;;;;12.65;7.13;;;615.00;1638.40;;;;;;5049582;28;20410;-72
2024/03/27 09:40:48;;;;;;;23.42;10.32;;;614.90;1664.00;;;;;;5049320;28;20053;-69
2024/03/27 09:43:15;;;;;;;11.13;6.72;;;614.40;1689.60;;;;;;5049834;28;20475;-70
2024/03/27 09:45:45;;;;;;;16.98;9.45;;;614.50;1689.60;;;;;;5049786;28;20032;-70
2024/03/27 09:48:11;;;;;;;16.67;10.38;;;589.70;1715.20;;;;;;5049709;28;20031;-72
2024/03/27 09:50:38;;;;;;;21.48;10.70;;;589.40;1740.80;;;;;;5042695;28;20376;-71
2024/03/27 09:53:06;;;;;;;12.52;7.80;;;589.40;1740.80;;;;;;5044995;28;20025;-71
2024/03/27 09:55:36;;;;;;;20.48;11.38;;;589.70;1740.80;;;;;;5049535;28;20025;-71
2024/03/27 09:58:12;;;;;;;18.13;7.50;;;589.40;1740.80;;;;;;5049741;28;20549;-71
2024/03/27 10:00:39;;;;;;;17.00;10.32;;;589.10;1740.80;;;;;;5043040;28;20033;-69
2024/03/27 10:03:05;;;;;;;14.65;8.35;;;589.10;1766.40;;;;;;5043320;28;20032;-69
2024/03/27 10:05:36;;;;;;;14.13;7.20;;;589.00;1766.40;;;;;;5049264;28;20490;-71
2024/03/27 10:08:06;;;;;;;28.48;16.00;;;588.80;1766.40;;;;;;5040570;28;20041;-71
2024/03/27 10:10:32;;;;;;;12.90;6.78;;;588.80;1792.00;;;;;;5045724;28;20063;-73
2024/03/27 10:12:59;;;;;;;23.05;12.73;;;589.00;1792.00;;;;;;5036663;28;20032;-71
2024/03/27 10:15:28;;;;;;;14.65;9.10;;;589.00;1792.00;;;;;;5042549;28;20025;-69
2024/03/27 10:17:55;;;;;;;11.52;6.70;;;564.00;1792.00;;;;;;5049116;28;20029;-71
2024/03/27 10:20:21;;;;;;;18.90;9.63;;;564.10;1792.00;;;;;;5049523;28;20017;-70
2024/03/27 10:22:47;;;;;;;14.98;8.00;;;563.90;1817.60;;;;;;5048847;28;20572;-71
2024/03/27 10:25:13;;;;;;;20.17;10.25;;;563.80;1817.60;;;;;;5048935;28;20379;-71
2024/03/27 10:27:40;;;;;;;18.00;6.72;;;564.10;1843.20;;;;;;5049213;28;20024;-70
2024/03/27 10:30:10;;;;;;;17.55;6.82;;;563.90;1843.20;;;;;;5048956;28;20025;-71
2024/03/27 10:32:36;;;;;;;18.08;9.65;;;563.80;1843.20;;;;;;5048773;28;20029;-69
2024/03/27 10:35:03;;;;;;;21.42;10.90;;;563.90;1843.20;;;;;;5049009;28;20017;-70
2024/03/27 10:37:29;;;;;;;16.90;7.55;;;564.10;1868.80;;;;;;5049248;28;20028;-71
2024/03/27 10:40:00;;;;;;;8.25;6.07;;;564.10;1843.20;;;;;;5048187;28;20053;-71
2024/03/27 10:42:27;;;;;;;17.13;9.15;;;564.10;1843.20;;;;;;5049181;28;20063;-72
2024/03/27 10:44:57;;;;;;;23.70;14.50;;;589.00;1843.20;;;;;;5047973;28;20017;-70
2024/03/27 10:47:33;;;;;;;12.50;6.45;;;588.90;1843.20;;;;;;5048882;28;20049;-71
2024/03/27 10:50:02;;;;;;;12.80;5.60;;;589.00;1817.60;;;;;;5048682;28;20013;-70
2024/03/27 10:52:29;;;;;;;12.15;5.30;;;588.90;1817.60;;;;;;5048767;28;20013;-71
2024/03/27 10:54:55;;;;;;;15.55;8.43;;;564.00;1843.20;;;;;;5048113;28;20108;-70
2024/03/27 10:57:22;;;;;;;18.60;8.82;;;564.00;1894.40;;;;;;5049229;28;20079;-70
2024/03/27 10:59:51;;;;;;;17.02;8.00;;;564.10;1894.40;;;;;;5048206;28;20059;-70
2024/03/27 11:02:23;;;;;;;42.45;20.10;;;564.10;1868.80;;;;;;5048508;28;20087;-71
2024/03/27 11:04:56;;;;;;;14.98;7.15;;;564.10;1868.80;;;;;;5049030;28;20076;-70
2024/03/27 11:07:23;;;;;;;16.95;8.80;;;589.00;1868.80;;;;;;5048183;28;20056;-70
2024/03/27 11:09:53;;;;;;;22.77;10.80;;;589.30;1868.80;;;;;;5048596;28;20448;-72
2024/03/27 11:12:26;;;;;;;16.10;7.70;;;589.00;1868.80;;;;;;5048579;28;20383;-72
2024/03/27 11:14:52;;;;;;;14.98;6.18;;;589.00;1868.80;;;;;;5045554;28;20046;-72
2024/03/27 11:17:26;;;;;;;19.52;7.40;;;588.90;1868.80;;;;;;5044012;28;20063;-72
2024/03/27 11:19:55;;;;;;;22.38;7.47;;;588.90;1868.80;;;;;;5048510;28;20048;-72
2024/03/27 11:22:23;;;;;;;13.40;7.82;;;588.80;1868.80;;;;;;5048655;28;20041;-72
2024/03/27 11:24:50;;;;;;;14.95;6.63;;;588.80;1868.80;;;;;;5048035;28;20082;-70
2024/03/27 11:27:31;;;;;;;22.60;12.05;;;588.80;1868.80;;;;;;5048415;28;20029;-70
2024/03/27 11:29:58;;;;;;;16.08;7.78;;;564.10;1868.80;;;;;;5035308;28;20040;-73
2024/03/27 11:32:42;;;;;;;21.40;10.70;;;564.10;1894.40;;;;;;5048256;28;20032;-71
2024/03/27 11:35:08;;;;;;;19.70;6.95;;;564.10;1894.40;;;;;;5048382;28;20029;-73
2024/03/27 11:37:36;;;;;;;19.40;8.05;;;564.10;1894.40;;;;;;5048535;28;20021;-71
2024/03/27 11:40:03;;;;;;;13.70;8.00;;;564.10;1894.40;;;;;;5048024;28;20056;-70
2024/03/27 11:42:32;;;;;;;22.60;8.85;;;564.00;1894.40;;;;;;5048445;28;20040;-71
2024/03/27 11:44:58;;;;;;;21.58;10.00;;;563.90;1894.40;;;;;;5047846;28;20060;-72
2024/03/27 11:47:25;;;;;;;24.27;10.82;;;563.70;1920.00;;;;;;5048311;28;20061;-74
2024/03/27 11:49:50;;;;;;;24.95;11.63;;;563.50;1920.00;;;;;;5048254;28;20441;-74
2024/03/27 11:52:17;;;;;;;32.88;16.30;;;563.60;1920.00;;;;;;5047925;28;20109;-71
2024/03/27 11:54:43;;;;;;;33.47;14.18;;;563.60;1920.00;;;;;;5048904;28;20028;-70
2024/03/27 11:57:08;;;;;;;24.80;12.45;;;563.70;1894.40;;;;;;5052622;28;20028;-71
2024/03/27 11:59:34;;;;;;;26.10;10.48;;;563.80;1894.40;;;;;;5051526;28;20025;-71
2024/03/27 12:02:01;;;;;;;30.75;15.75;;;563.80;1894.40;;;;;;5057078;28;20042;-73